createdAt,value
2022-12-08T00:02:26.599Z,15.30
2022-12-08T00:05:11.468Z,14.87
2022-12-08T00:07:58.990Z,20.47
2022-12-08T00:10:48.509Z,18.60
2022-12-08T00:13:15.187Z,17.00
2022-12-08T00:15:43.305Z,15.17
2022-12-08T00:18:11.457Z,15.83
2022-12-08T00:20:39.613Z,16.90
2022-12-08T00:23:09.052Z,15.30
2022-12-08T00:25:37.648Z,17.00
2022-12-08T00:28:06.120Z,17.43
2022-12-08T00:30:34.208Z,18.93
2022-12-08T00:33:02.300Z,19.53
2022-12-08T00:35:30.474Z,20.47
2022-12-08T00:38:01.055Z,16.73
2022-12-08T00:40:30.827Z,16.27
2022-12-08T00:42:58.952Z,14.90
2022-12-08T00:45:27.134Z,16.70
2022-12-08T00:47:55.271Z,18.30
2022-12-08T00:50:23.350Z,17.83
2022-12-08T00:52:51.501Z,16.47
2022-12-08T00:55:19.681Z,19.43
2022-12-08T00:57:49.145Z,18.27
2022-12-08T01:00:17.986Z,19.90
2022-12-08T01:02:46.096Z,22.83
2022-12-08T01:05:14.254Z,17.67
2022-12-08T01:07:42.389Z,24.50
2022-12-08T01:10:10.953Z,22.60
2022-12-08T01:12:39.133Z,22.97
2022-12-08T01:15:10.243Z,19.37
2022-12-08T01:17:38.892Z,19.53
2022-12-08T01:20:08.947Z,18.43
2022-12-08T01:22:37.090Z,18.43
2022-12-08T01:25:06.638Z,16.47
2022-12-08T01:27:34.754Z,19.33
2022-12-08T01:30:03.586Z,14.57
2022-12-08T01:32:33.254Z,15.37
2022-12-08T01:35:01.707Z,20.07
2022-12-08T01:37:31.037Z,17.17
2022-12-08T01:39:59.127Z,16.53
2022-12-08T01:42:27.374Z,17.70
2022-12-08T01:45:02.557Z,17.40
2022-12-08T01:47:39.274Z,16.67
2022-12-08T01:50:12.711Z,15.23
2022-12-08T01:52:45.619Z,14.63
2022-12-08T01:55:21.458Z,16.13
2022-12-08T01:57:53.879Z,16.50
2022-12-08T02:00:24.340Z,14.93
2022-12-08T02:02:59.844Z,15.33
2022-12-08T02:05:32.163Z,14.50
2022-12-08T02:08:06.595Z,14.70
2022-12-08T02:10:38.392Z,14.97
2022-12-08T02:13:12.065Z,14.73
2022-12-08T02:15:54.050Z,12.87
2022-12-08T02:19:14.725Z,13.87
2022-12-08T02:21:49.557Z,13.40
2022-12-08T02:24:32.361Z,10.73
2022-12-08T02:27:27.807Z,12.27
2022-12-08T02:30:34.336Z,11.47
2022-12-08T02:34:02.512Z,18.07
2022-12-08T02:36:38.747Z,17.17
2022-12-08T02:39:23.811Z,13.07
2022-12-08T02:42:03.273Z,11.97
2022-12-08T02:44:38.367Z,13.50
2022-12-08T02:47:11.158Z,12.50
2022-12-08T02:49:40.788Z,12.57
2022-12-08T02:52:39.896Z,12.10
2022-12-08T02:55:20.959Z,14.07
2022-12-08T02:58:28.187Z,12.77
2022-12-08T03:01:16.833Z,9.73
2022-12-08T03:04:00.132Z,12.13
2022-12-08T03:06:35.857Z,11.43
2022-12-08T03:09:15.308Z,10.20
2022-12-08T03:11:54.265Z,11.23
2022-12-08T03:14:23.924Z,12.07
2022-12-08T03:16:59.833Z,15.63
2022-12-08T03:19:33.676Z,13.30
2022-12-08T03:22:05.894Z,13.47
2022-12-08T03:24:38.664Z,11.43
2022-12-08T03:27:11.994Z,11.93
2022-12-08T03:29:40.106Z,10.23
2022-12-08T03:32:18.551Z,14.33
2022-12-08T03:34:50.423Z,14.27
2022-12-08T03:37:19.053Z,12.30
2022-12-08T03:39:47.260Z,16.23
2022-12-08T03:42:16.748Z,14.30
2022-12-08T03:44:44.859Z,13.57
2022-12-08T03:47:13.296Z,15.17
2022-12-08T03:49:41.436Z,11.93
2022-12-08T03:52:09.580Z,15.83
2022-12-08T03:54:37.771Z,12.87
2022-12-08T03:57:05.886Z,12.57
2022-12-08T03:59:35.525Z,16.33
2022-12-08T04:02:03.699Z,17.00
2022-12-08T04:04:31.893Z,14.53
2022-12-08T04:06:59.998Z,13.17
2022-12-08T04:09:28.211Z,12.97
2022-12-08T04:11:56.394Z,12.37
2022-12-08T04:14:24.626Z,13.37
2022-12-08T04:16:54.121Z,13.77
2022-12-08T04:19:22.316Z,13.23
2022-12-08T04:21:50.454Z,14.27
2022-12-08T04:24:18.854Z,12.70
2022-12-08T04:26:47.044Z,16.33
2022-12-08T04:29:15.167Z,18.50
2022-12-08T04:31:43.581Z,16.70
2022-12-08T04:34:13.136Z,16.17
2022-12-08T04:36:41.333Z,17.30
2022-12-08T04:39:09.464Z,21.27
2022-12-08T04:41:37.550Z,20.70
2022-12-08T04:44:05.992Z,21.47
2022-12-08T04:46:35.933Z,16.87
2022-12-08T04:49:05.919Z,19.10
2022-12-08T04:51:35.449Z,18.47
2022-12-08T04:54:03.597Z,21.77
2022-12-08T04:56:31.742Z,23.33
2022-12-08T04:58:59.827Z,20.37
2022-12-08T05:01:28.094Z,20.73
2022-12-08T05:03:56.235Z,20.33
2022-12-08T05:06:24.409Z,22.57
2022-12-08T05:08:53.960Z,22.47
2022-12-08T05:11:22.056Z,18.37
2022-12-08T05:13:50.243Z,20.87
2022-12-08T05:16:18.644Z,22.27
2022-12-08T05:18:46.910Z,21.43
2022-12-08T05:21:15.612Z,23.10
2022-12-08T05:23:43.838Z,21.60
2022-12-08T05:26:13.369Z,22.63
2022-12-08T05:28:42.981Z,21.90
2022-12-08T05:31:12.427Z,20.63
2022-12-08T05:33:40.873Z,24.80
2022-12-08T05:36:09.814Z,19.97
2022-12-08T05:38:38.235Z,18.77
2022-12-08T05:41:08.319Z,19.40
2022-12-08T05:43:37.768Z,18.13
2022-12-08T05:46:06.475Z,20.97
2022-12-08T05:48:35.198Z,20.87
2022-12-08T05:51:04.095Z,21.77
2022-12-08T05:53:33.427Z,20.87
2022-12-08T05:56:01.551Z,20.10
2022-12-08T05:58:29.672Z,21.97
2022-12-08T06:00:59.129Z,22.57
2022-12-08T06:03:27.445Z,22.30
2022-12-08T06:05:55.694Z,25.70
2022-12-08T06:08:23.955Z,21.03
2022-12-08T06:10:52.131Z,26.20
2022-12-08T06:13:20.273Z,20.60
2022-12-08T06:15:48.393Z,23.27
2022-12-08T06:18:17.855Z,19.70
2022-12-08T06:20:45.954Z,24.17
2022-12-08T06:23:14.136Z,19.20
2022-12-08T06:25:42.256Z,20.40
2022-12-08T06:28:10.376Z,20.50
2022-12-08T06:30:39.335Z,20.73
2022-12-08T06:33:07.435Z,22.17
2022-12-08T06:35:38.066Z,18.73
2022-12-08T06:38:06.148Z,22.70
2022-12-08T06:40:34.266Z,20.47
2022-12-08T06:43:02.413Z,19.23
2022-12-08T06:45:30.586Z,18.73
2022-12-08T06:47:58.765Z,25.30
2022-12-08T06:50:26.910Z,18.87
2022-12-08T06:53:04.766Z,22.87
2022-12-08T06:58:22.488Z,23.40
2022-12-08T07:00:50.676Z,20.67
2022-12-08T07:03:18.852Z,23.93
2022-12-08T07:05:47.016Z,21.80
2022-12-08T07:08:16.744Z,22.63
2022-12-08T07:10:44.912Z,24.90
2022-12-08T07:13:13.033Z,21.50
2022-12-08T07:15:41.166Z,20.47
2022-12-08T07:18:09.244Z,20.50
2022-12-08T07:20:37.504Z,22.67
2022-12-08T07:23:05.596Z,25.37
2022-12-08T07:25:35.090Z,22.63
2022-12-08T07:28:09.228Z,22.27
2022-12-08T07:30:37.462Z,22.13
2022-12-08T07:33:06.529Z,23.53
2022-12-08T07:35:35.317Z,23.07
2022-12-08T07:38:04.039Z,23.03
2022-12-08T07:40:32.162Z,22.93
2022-12-08T07:43:01.632Z,19.07
2022-12-08T07:45:31.727Z,21.53
2022-12-08T07:48:00.352Z,29.60
2022-12-08T07:50:28.507Z,23.57
2022-12-08T07:52:56.977Z,23.20
2022-12-08T07:55:25.134Z,21.03
2022-12-08T07:57:53.597Z,24.43
2022-12-08T08:00:23.533Z,24.70
2022-12-08T08:02:51.983Z,23.10
2022-12-08T08:05:20.595Z,23.17
2022-12-08T08:07:48.789Z,23.47
2022-12-08T08:10:17.044Z,24.13
2022-12-08T08:12:45.266Z,25.03
2022-12-08T08:15:13.706Z,24.47
2022-12-08T08:17:43.153Z,24.30
2022-12-08T08:20:12.812Z,23.00
2022-12-08T08:22:40.951Z,23.13
2022-12-08T08:25:10.224Z,22.67
2022-12-08T08:27:39.558Z,22.00
2022-12-08T08:30:16.562Z,21.33
2022-12-08T08:32:49.823Z,22.50
2022-12-08T08:35:18.450Z,22.50
2022-12-08T08:37:49.097Z,20.90
2022-12-08T08:40:18.250Z,27.53
2022-12-08T08:42:46.385Z,22.03
2022-12-08T08:45:14.574Z,24.27
2022-12-08T08:47:42.738Z,23.17
2022-12-08T08:50:12.779Z,22.80
2022-12-08T08:52:40.963Z,22.80
2022-12-08T08:55:09.842Z,23.43
2022-12-08T08:57:38.343Z,20.47
2022-12-08T09:00:10.025Z,24.90
2022-12-08T09:02:39.237Z,24.00
2022-12-08T09:05:08.498Z,23.83
2022-12-08T09:07:38.278Z,22.57
2022-12-08T09:10:08.855Z,20.90
2022-12-08T09:12:37.284Z,19.73
2022-12-08T09:15:06.695Z,25.77
2022-12-08T09:17:34.824Z,24.63
2022-12-08T09:20:03.502Z,21.50
2022-12-08T09:22:31.947Z,25.80
2022-12-08T09:25:01.559Z,27.77
2022-12-08T09:27:29.664Z,23.10
2022-12-08T09:29:57.809Z,19.13
2022-12-08T09:32:25.961Z,20.20
2022-12-08T09:34:54.276Z,24.47
2022-12-08T09:37:22.431Z,20.10
2022-12-08T09:39:50.713Z,22.03
2022-12-08T09:42:35.755Z,22.60
2022-12-08T09:45:07.371Z,22.03
2022-12-08T09:47:41.745Z,17.50
2022-12-08T09:50:19.360Z,20.20
2022-12-08T09:53:02.345Z,23.23
2022-12-08T09:55:42.360Z,17.57
2022-12-08T09:58:26.296Z,19.70
2022-12-08T10:00:54.537Z,17.40
2022-12-08T10:03:28.954Z,24.60
2022-12-08T10:06:10.013Z,31.87
2022-12-08T10:08:49.103Z,23.50
2022-12-08T10:11:28.796Z,19.40
2022-12-08T10:14:13.798Z,19.00
2022-12-08T10:16:49.333Z,18.50
2022-12-08T10:19:22.804Z,19.07
2022-12-08T10:21:52.227Z,17.70
2022-12-08T10:24:28.216Z,18.43
2022-12-08T10:26:57.832Z,19.73
2022-12-08T10:29:27.298Z,18.73
2022-12-08T10:31:58.089Z,17.73
2022-12-08T10:34:26.399Z,16.83
2022-12-08T10:36:57.362Z,14.63
2022-12-08T10:39:33.982Z,14.93
2022-12-08T10:42:19.029Z,14.43
2022-12-08T10:45:03.703Z,14.10
2022-12-08T10:47:38.504Z,14.43
2022-12-08T10:50:19.705Z,12.63
2022-12-08T10:52:56.102Z,11.57
2022-12-08T10:55:24.756Z,16.90
2022-12-08T10:57:53.029Z,9.43
2022-12-08T11:00:26.613Z,10.53
2022-12-08T11:02:59.622Z,11.00
2022-12-08T11:05:33.887Z,10.33
2022-12-08T11:08:03.117Z,13.13
2022-12-08T11:10:43.810Z,12.47
2022-12-08T11:13:22.248Z,10.60
2022-12-08T11:15:54.520Z,8.47
2022-12-08T11:18:28.668Z,11.00
2022-12-08T11:21:07.347Z,8.77
2022-12-08T11:23:38.608Z,9.80
2022-12-08T11:26:21.498Z,8.27
2022-12-08T11:28:49.666Z,9.77
2022-12-08T11:31:33.123Z,8.83
2022-12-08T11:34:04.074Z,9.10
2022-12-08T11:36:36.564Z,7.83
2022-12-08T11:39:06.633Z,10.40
2022-12-08T11:41:41.934Z,9.07
2022-12-08T11:44:30.048Z,7.85
2022-12-08T11:47:07.244Z,9.73
2022-12-08T11:49:39.477Z,7.40
2022-12-08T11:52:22.136Z,6.03
2022-12-08T11:54:59.057Z,7.67
2022-12-08T11:57:30.704Z,5.67
2022-12-08T12:00:02.056Z,8.30
2022-12-08T12:02:49.724Z,8.15
2022-12-08T12:06:03.318Z,9.43
2022-12-08T12:08:43.587Z,8.67
2022-12-08T12:11:37.071Z,7.47
2022-12-08T12:14:34.263Z,6.27
2022-12-08T12:17:06.992Z,7.37
2022-12-08T12:19:40.996Z,6.40
2022-12-08T12:22:17.628Z,6.93
2022-12-08T12:24:51.290Z,8.40
2022-12-08T12:27:30.829Z,8.00
2022-12-08T12:30:03.516Z,9.10
2022-12-08T12:32:47.055Z,8.37
2022-12-08T12:35:27.652Z,7.18
2022-12-08T12:38:03.701Z,6.43
2022-12-08T12:40:44.384Z,9.53
2022-12-08T12:43:31.360Z,7.13
2022-12-08T12:46:43.017Z,9.70
2022-12-08T12:50:16.250Z,11.47
2022-12-08T12:52:49.960Z,7.63
2022-12-08T12:55:30.245Z,6.80
2022-12-08T12:58:00.117Z,8.23
2022-12-08T13:00:29.284Z,7.73
2022-12-08T13:02:59.478Z,7.90
2022-12-08T13:05:31.678Z,9.27
2022-12-08T13:08:07.709Z,7.93
2022-12-08T13:10:39.806Z,7.90
2022-12-08T13:13:18.706Z,8.23
2022-12-08T13:15:53.422Z,7.47
2022-12-08T13:18:26.531Z,6.03
2022-12-08T13:21:04.776Z,8.83
2022-12-08T13:23:50.510Z,9.03
2022-12-08T13:26:23.595Z,7.03
2022-12-08T13:29:24.114Z,6.93
2022-12-08T13:31:55.069Z,9.10
2022-12-08T13:34:36.686Z,7.13
2022-12-08T13:37:23.061Z,7.37
2022-12-08T13:39:57.716Z,7.13
2022-12-08T13:42:37.114Z,6.40
2022-12-08T13:45:28.000Z,11.27
2022-12-08T13:48:41.631Z,12.67
2022-12-08T13:55:00.724Z,11.33
2022-12-08T13:57:08.879Z,9.43
2022-12-08T13:59:45.830Z,17.70
2022-12-08T14:02:28.959Z,6.57
2022-12-08T14:07:48.570Z,6.10
2022-12-08T14:10:23.301Z,12.50
2022-12-08T14:13:00.278Z,53.03
2022-12-08T14:15:34.029Z,6.87
2022-12-08T14:18:05.455Z,6.37
2022-12-08T14:20:57.832Z,19.83
2022-12-08T14:23:23.569Z,8.40
2022-12-08T14:25:51.977Z,6.17
2022-12-08T14:28:23.186Z,18.23
2022-12-08T14:30:51.791Z,27.30
2022-12-08T14:33:20.773Z,10.60
2022-12-08T14:35:53.976Z,7.63
2022-12-08T14:38:25.548Z,6.70
2022-12-08T14:41:04.750Z,6.70
2022-12-08T14:43:35.106Z,7.23
2022-12-08T14:46:06.730Z,7.13
2022-12-08T14:48:44.545Z,5.70
2022-12-08T14:51:26.577Z,7.37
2022-12-08T14:53:59.481Z,7.30
2022-12-08T14:56:33.475Z,6.17
2022-12-08T14:59:13.678Z,7.20
2022-12-08T15:01:43.748Z,8.13
2022-12-08T15:04:20.697Z,7.80
2022-12-08T15:06:54.586Z,7.10
2022-12-08T15:09:33.048Z,10.53
2022-12-08T15:12:07.374Z,7.53
2022-12-08T15:14:41.329Z,13.97
2022-12-08T15:17:35.298Z,14.67
2022-12-08T15:20:05.871Z,12.87
2022-12-08T15:22:35.121Z,14.73
2022-12-08T15:25:03.273Z,10.00
2022-12-08T15:27:34.965Z,14.13
2022-12-08T15:30:15.479Z,10.00
2022-12-08T15:32:44.864Z,11.77
2022-12-08T15:35:14.650Z,12.37
2022-12-08T15:37:43.228Z,12.63
2022-12-08T15:40:19.877Z,11.53
2022-12-08T15:42:48.788Z,12.77
2022-12-08T15:45:19.171Z,13.93
2022-12-08T15:47:47.320Z,14.33
2022-12-08T15:50:21.248Z,11.50
2022-12-08T15:52:50.177Z,13.13
2022-12-08T15:55:22.054Z,13.20
2022-12-08T16:00:52.401Z,13.87
2022-12-08T16:09:13.173Z,17.90
2022-12-08T16:12:08.806Z,12.13
2022-12-08T16:17:28.961Z,9.90
2022-12-08T16:19:57.155Z,10.93
2022-12-08T16:25:19.163Z,8.53
2022-12-08T16:28:29.457Z,6.63
2022-12-08T16:30:39.414Z,6.53
2022-12-08T16:33:10.392Z,8.23
2022-12-08T16:35:38.645Z,10.17
2022-12-08T16:38:06.812Z,18.07
2022-12-08T16:40:56.517Z,25.53
2022-12-08T16:43:23.672Z,15.57
2022-12-08T16:45:52.670Z,16.13
2022-12-08T16:48:22.504Z,12.50
2022-12-08T16:50:50.667Z,9.33
2022-12-08T16:53:18.762Z,12.00
2022-12-08T16:55:48.138Z,13.13
2022-12-08T16:58:18.292Z,12.00
2022-12-08T17:00:49.437Z,10.43
2022-12-08T17:03:18.505Z,10.07
2022-12-08T17:05:48.022Z,8.90
2022-12-08T17:08:16.226Z,10.03
2022-12-08T17:10:44.520Z,10.53
2022-12-08T17:13:13.038Z,8.47
2022-12-08T17:15:41.518Z,9.80
2022-12-08T17:18:09.604Z,10.33
2022-12-08T17:20:37.822Z,10.87
2022-12-08T17:23:07.254Z,10.80
2022-12-08T17:25:37.260Z,15.70
2022-12-08T17:28:05.663Z,9.83
2022-12-08T17:30:33.870Z,10.23
2022-12-08T17:33:02.103Z,12.10
2022-12-08T17:35:30.239Z,21.03
2022-12-08T17:37:58.381Z,13.97
2022-12-08T17:40:28.479Z,9.53
2022-12-08T17:42:56.687Z,10.73
2022-12-08T17:45:24.975Z,7.97
2022-12-08T17:47:53.090Z,8.20
2022-12-08T17:50:21.230Z,11.43
2022-12-08T17:52:51.446Z,8.03
2022-12-08T17:55:19.612Z,8.90
2022-12-08T17:57:49.048Z,17.33
2022-12-08T18:00:17.801Z,20.17
2022-12-08T18:02:45.956Z,12.43
2022-12-08T18:05:14.322Z,8.60
2022-12-08T18:07:42.472Z,13.40
2022-12-08T18:10:11.164Z,15.63
2022-12-08T18:12:39.362Z,14.33
2022-12-08T18:15:14.154Z,10.93
2022-12-08T18:17:42.430Z,8.53
2022-12-08T18:20:12.257Z,8.83
2022-12-08T18:22:41.106Z,12.17
2022-12-08T18:25:11.320Z,22.77
2022-12-08T18:27:43.189Z,24.43
2022-12-08T18:30:18.098Z,21.50
2022-12-08T18:32:46.773Z,17.23
2022-12-08T18:35:15.104Z,21.43
2022-12-08T18:37:43.999Z,17.27
2022-12-08T18:40:14.126Z,19.73
2022-12-08T18:42:42.309Z,19.97
2022-12-08T18:45:15.701Z,13.40
2022-12-08T18:47:46.050Z,14.40
2022-12-08T18:50:14.404Z,15.57
2022-12-08T18:52:42.835Z,16.70
2022-12-08T18:55:11.603Z,16.00
2022-12-08T18:57:43.024Z,15.07
2022-12-08T19:00:17.186Z,15.50
2022-12-08T19:02:45.632Z,15.73
2022-12-08T19:05:15.105Z,16.57
2022-12-08T19:07:45.448Z,14.07
2022-12-08T19:10:13.876Z,15.03
2022-12-08T19:12:42.535Z,14.07
2022-12-08T19:15:11.907Z,13.60
2022-12-08T19:17:41.431Z,18.13
2022-12-08T19:20:12.303Z,22.93
2022-12-08T19:22:40.569Z,21.20
2022-12-08T19:25:09.425Z,16.67
2022-12-08T19:27:37.534Z,12.53
2022-12-08T19:30:07.688Z,11.93
2022-12-08T19:32:36.020Z,18.13
2022-12-08T19:35:07.414Z,18.23
2022-12-08T19:37:36.332Z,13.10
2022-12-08T19:40:23.730Z,16.50
2022-12-08T19:43:09.756Z,21.33
2022-12-08T19:45:39.152Z,20.73
2022-12-08T19:48:07.694Z,21.60
2022-12-08T19:50:37.400Z,23.27
2022-12-08T19:53:08.432Z,21.10
2022-12-08T19:55:37.387Z,27.43
2022-12-08T19:58:07.210Z,20.33
2022-12-08T20:00:37.360Z,21.87
2022-12-08T20:03:06.383Z,21.30
2022-12-08T20:05:38.129Z,28.87
2022-12-08T20:08:07.198Z,24.00
2022-12-08T20:10:39.104Z,21.00
2022-12-08T20:13:25.812Z,17.03
2022-12-08T20:15:55.118Z,17.03
2022-12-08T20:18:24.094Z,16.87
2022-12-08T20:20:53.663Z,19.50
2022-12-08T20:23:21.824Z,26.63
2022-12-08T20:25:50.012Z,22.03
2022-12-08T20:28:18.955Z,15.10
2022-12-08T20:30:48.973Z,15.63
2022-12-08T20:33:18.964Z,16.93
2022-12-08T20:35:49.192Z,15.20
2022-12-08T20:38:18.708Z,18.13
2022-12-08T20:40:47.467Z,19.67
2022-12-08T20:43:15.701Z,19.37
2022-12-08T20:45:44.023Z,20.70
2022-12-08T20:48:12.243Z,21.87
2022-12-08T20:50:40.426Z,21.77
2022-12-08T20:53:08.676Z,19.17
2022-12-08T20:55:41.585Z,20.73
2022-12-08T20:58:09.950Z,17.90
2022-12-08T21:00:39.146Z,16.57
2022-12-08T21:03:07.753Z,17.70
2022-12-08T21:05:38.868Z,17.87
2022-12-08T21:08:07.645Z,15.73
2022-12-08T21:10:42.292Z,12.80
2022-12-08T21:13:12.277Z,17.03
2022-12-08T21:15:40.575Z,13.93
2022-12-08T21:18:08.873Z,11.10
2022-12-08T21:20:37.153Z,13.10
2022-12-08T21:23:05.613Z,12.80
2022-12-08T21:25:33.887Z,14.10
2022-12-08T21:28:03.733Z,16.23
2022-12-08T21:30:31.876Z,16.87
2022-12-08T21:33:00.228Z,13.00
2022-12-08T21:35:28.593Z,12.50
2022-12-08T21:37:56.801Z,13.63
2022-12-08T21:40:25.178Z,11.10
2022-12-08T21:42:53.781Z,13.53
2022-12-08T21:45:23.302Z,15.13
2022-12-08T21:47:52.065Z,20.30
2022-12-08T21:50:20.637Z,18.13
2022-12-08T21:52:50.158Z,13.93
2022-12-08T21:55:20.292Z,13.67
2022-12-08T21:57:48.830Z,16.13
2022-12-08T22:00:18.987Z,14.10
2022-12-08T22:02:48.974Z,15.43
2022-12-08T22:05:17.516Z,12.37
2022-12-08T22:07:46.115Z,13.13
2022-12-08T22:10:14.440Z,13.30
2022-12-08T22:12:42.629Z,15.37
2022-12-08T22:15:12.717Z,14.50
2022-12-08T22:17:44.622Z,12.40
2022-12-08T22:20:18.009Z,13.50
2022-12-08T22:22:46.856Z,16.50
2022-12-08T22:25:15.365Z,17.30
2022-12-08T22:27:43.615Z,15.57
2022-12-08T22:30:13.316Z,15.30
2022-12-08T22:32:41.882Z,13.63
2022-12-08T22:35:11.175Z,14.47
2022-12-08T22:37:40.833Z,11.10
2022-12-08T22:40:11.266Z,12.50
2022-12-08T22:42:40.090Z,13.97
2022-12-08T22:45:09.965Z,13.57
2022-12-08T22:47:38.388Z,17.27
2022-12-08T22:50:08.218Z,14.17
2022-12-08T22:52:36.794Z,18.60
2022-12-08T22:55:08.088Z,14.27
2022-12-08T22:57:36.253Z,13.93
2022-12-08T23:00:07.039Z,14.40
2022-12-08T23:02:35.676Z,12.13
2022-12-08T23:05:04.640Z,13.57
2022-12-08T23:07:33.018Z,12.83
2022-12-08T23:10:01.129Z,13.17
2022-12-08T23:12:30.680Z,13.50
2022-12-08T23:14:58.887Z,13.80
2022-12-08T23:17:27.101Z,12.47
2022-12-08T23:19:55.270Z,12.43
2022-12-08T23:22:23.476Z,12.37
2022-12-08T23:24:51.830Z,14.47
2022-12-08T23:27:20.053Z,15.43
2022-12-08T23:29:49.515Z,12.93
2022-12-08T23:32:17.890Z,15.40
2022-12-08T23:34:46.934Z,16.57
2022-12-08T23:37:15.399Z,14.63
2022-12-08T23:39:43.587Z,15.27
2022-12-08T23:42:12.158Z,15.43
2022-12-08T23:44:40.688Z,11.13
2022-12-08T23:47:10.329Z,14.20
2022-12-08T23:49:38.684Z,12.57
2022-12-08T23:52:07.258Z,15.30
2022-12-08T23:54:36.159Z,16.17
2022-12-08T23:57:04.511Z,17.23
2022-12-08T23:59:33.166Z,15.03
